sensor_id;sensor_type;location;lat;lon;timestamp;pressure;altitude;pressure_sealevel;temperature;humidity
41800;BME280;27468;47.460;19.034;2022-07-29T00:02:12;100378.97;;;23.41;45.54
41800;BME280;27468;47.460;19.034;2022-07-29T00:04:37;100370.47;;;23.34;45.55
41800;BME280;27468;47.460;19.034;2022-07-29T00:07:03;100380.91;;;23.39;45.48
41800;BME280;27468;47.460;19.034;2022-07-29T00:09:30;100374.88;;;23.35;45.31
41800;BME280;27468;47.460;19.034;2022-07-29T00:11:58;100358.44;;;23.27;45.43
41800;BME280;27468;47.460;19.034;2022-07-29T00:14:24;100323.34;;;23.05;45.60
41800;BME280;27468;47.460;19.034;2022-07-29T00:16:49;100339.75;;;23.13;45.63
41800;BME280;27468;47.460;19.034;2022-07-29T00:19:15;100347.50;;;23.18;45.81
41800;BME280;27468;47.460;19.034;2022-07-29T00:21:40;100368.97;;;23.30;45.71
41800;BME280;27468;47.460;19.034;2022-07-29T00:24:06;100356.94;;;23.23;45.61
41800;BME280;27468;47.460;19.034;2022-07-29T00:26:32;100373.50;;;23.30;45.69
41800;BME280;27468;47.460;19.034;2022-07-29T00:29:02;100378.88;;;23.30;45.84
41800;BME280;27468;47.460;19.034;2022-07-29T00:31:28;100357.28;;;23.19;45.61
41800;BME280;27468;47.460;19.034;2022-07-29T00:33:53;100386.63;;;23.34;45.77
41800;BME280;27468;47.460;19.034;2022-07-29T00:36:19;100373.84;;;23.25;45.70
41800;BME280;27468;47.460;19.034;2022-07-29T00:38:50;100362.31;;;23.23;45.68
41800;BME280;27468;47.460;19.034;2022-07-29T00:41:16;100382.97;;;23.35;45.92
41800;BME280;27468;47.460;19.034;2022-07-29T00:43:42;100388.56;;;23.32;45.66
41800;BME280;27468;47.460;19.034;2022-07-29T00:46:08;100371.91;;;23.27;45.63
41800;BME280;27468;47.460;19.034;2022-07-29T00:48:33;100364.38;;;23.20;45.80
41800;BME280;27468;47.460;19.034;2022-07-29T00:50:59;100372.66;;;23.29;45.45
41800;BME280;27468;47.460;19.034;2022-07-29T00:53:26;100352.88;;;23.18;45.67
41800;BME280;27468;47.460;19.034;2022-07-29T00:55:53;100375.84;;;23.34;45.44
41800;BME280;27468;47.460;19.034;2022-07-29T00:58:19;100370.91;;;23.28;45.53
41800;BME280;27468;47.460;19.034;2022-07-29T01:00:45;100385.66;;;23.35;45.42
41800;BME280;27468;47.460;19.034;2022-07-29T01:03:10;100382.00;;;23.36;45.23
41800;BME280;27468;47.460;19.034;2022-07-29T01:05:36;100374.25;;;23.32;45.87
41800;BME280;27468;47.460;19.034;2022-07-29T01:08:02;100342.22;;;23.16;45.61
41800;BME280;27468;47.460;19.034;2022-07-29T01:10:28;100377.06;;;23.30;45.57
41800;BME280;27468;47.460;19.034;2022-07-29T01:12:57;100334.00;;;23.07;45.79
41800;BME280;27468;47.460;19.034;2022-07-29T01:15:23;100357.38;;;23.17;46.18
41800;BME280;27468;47.460;19.034;2022-07-29T01:26:03;100370.72;;;23.19;46.56
41800;BME280;27468;47.460;19.034;2022-07-29T01:34:11;100366.66;;;23.13;46.40
41800;BME280;27468;47.460;19.034;2022-07-29T01:36:55;100371.16;;;23.13;46.68
41800;BME280;27468;47.460;19.034;2022-07-29T01:39:38;100357.56;;;23.03;46.96
41800;BME280;27468;47.460;19.034;2022-07-29T01:45:12;100365.50;;;23.04;47.28
41800;BME280;27468;47.460;19.034;2022-07-29T01:47:46;100366.06;;;22.97;47.83
41800;BME280;27468;47.460;19.034;2022-07-29T01:50:17;100346.28;;;22.85;47.66
41800;BME280;27468;47.460;19.034;2022-07-29T01:52:52;100352.41;;;22.87;47.82
41800;BME280;27468;47.460;19.034;2022-07-29T01:55:22;100329.38;;;22.70;47.50
41800;BME280;27468;47.460;19.034;2022-07-29T01:57:50;100351.53;;;22.87;47.39
41800;BME280;27468;47.460;19.034;2022-07-29T02:00:17;100334.22;;;22.78;47.31
41800;BME280;27468;47.460;19.034;2022-07-29T02:02:44;100323.25;;;22.68;47.83
41800;BME280;27468;47.460;19.034;2022-07-29T02:05:13;100345.31;;;22.86;47.79
41800;BME280;27468;47.460;19.034;2022-07-29T02:07:42;100359.59;;;22.87;48.21
41800;BME280;27468;47.460;19.034;2022-07-29T02:10:09;100366.59;;;22.89;48.19
41800;BME280;27468;47.460;19.034;2022-07-29T02:12:35;100362.41;;;22.85;48.29
41800;BME280;27468;47.460;19.034;2022-07-29T02:15:04;100330.44;;;22.68;48.57
41800;BME280;27468;47.460;19.034;2022-07-29T02:17:40;100347.56;;;22.80;48.30
41800;BME280;27468;47.460;19.034;2022-07-29T02:20:07;100355.31;;;22.84;48.48
41800;BME280;27468;47.460;19.034;2022-07-29T02:22:35;100356.59;;;22.79;48.56
41800;BME280;27468;47.460;19.034;2022-07-29T02:25:02;100340.13;;;22.70;48.56
41800;BME280;27468;47.460;19.034;2022-07-29T02:27:28;100361.19;;;22.77;48.78
41800;BME280;27468;47.460;19.034;2022-07-29T02:29:55;100344.75;;;22.68;49.27
41800;BME280;27468;47.460;19.034;2022-07-29T02:32:24;100354.53;;;22.69;49.59
41800;BME280;27468;47.460;19.034;2022-07-29T02:34:51;100335.94;;;22.54;49.58
41800;BME280;27468;47.460;19.034;2022-07-29T02:37:17;100347.13;;;22.60;49.26
41800;BME280;27468;47.460;19.034;2022-07-29T02:39:44;100339.94;;;22.48;49.55
41800;BME280;27468;47.460;19.034;2022-07-29T02:42:13;100351.34;;;22.52;49.73
41800;BME280;27468;47.460;19.034;2022-07-29T02:44:40;100350.13;;;22.43;49.67
41800;BME280;27468;47.460;19.034;2022-07-29T02:50:20;100345.63;;;22.44;49.72
41800;BME280;27468;47.460;19.034;2022-07-29T02:52:57;100298.53;;;22.13;49.89
41800;BME280;27468;47.460;19.034;2022-07-29T02:58:05;100320.66;;;22.16;50.18
41800;BME280;27468;47.460;19.034;2022-07-29T03:00:35;100357.31;;;22.30;50.60
41800;BME280;27468;47.460;19.034;2022-07-29T03:03:03;100328.72;;;22.16;50.34
41800;BME280;27468;47.460;19.034;2022-07-29T03:05:30;100340.22;;;22.18;50.69
41800;BME280;27468;47.460;19.034;2022-07-29T03:08:11;100349.47;;;22.27;50.62
41800;BME280;27468;47.460;19.034;2022-07-29T03:10:43;100327.53;;;22.07;51.15
41800;BME280;27468;47.460;19.034;2022-07-29T03:13:09;100323.59;;;21.99;51.10
41800;BME280;27468;47.460;19.034;2022-07-29T03:15:36;100354.72;;;22.16;51.56
41800;BME280;27468;47.460;19.034;2022-07-29T03:18:02;100353.75;;;22.17;51.42
41800;BME280;27468;47.460;19.034;2022-07-29T03:20:28;100356.44;;;22.17;50.94
41800;BME280;27468;47.460;19.034;2022-07-29T03:22:53;100352.03;;;22.16;51.47
41800;BME280;27468;47.460;19.034;2022-07-29T03:25:19;100318.78;;;21.91;51.53
41800;BME280;27468;47.460;19.034;2022-07-29T03:27:46;100354.38;;;22.07;51.34
41800;BME280;27468;47.460;19.034;2022-07-29T03:30:13;100346.63;;;22.03;51.55
41800;BME280;27468;47.460;19.034;2022-07-29T03:32:40;100363.19;;;22.10;51.23
41800;BME280;27468;47.460;19.034;2022-07-29T03:35:06;100358.03;;;22.06;51.70
41800;BME280;27468;47.460;19.034;2022-07-29T03:37:32;100354.28;;;22.09;51.09
41800;BME280;27468;47.460;19.034;2022-07-29T03:39:59;100332.00;;;21.94;51.48
41800;BME280;27468;47.460;19.034;2022-07-29T03:42:28;100362.31;;;22.09;51.24
41800;BME280;27468;47.460;19.034;2022-07-29T03:44:57;100349.09;;;22.06;50.99
41800;BME280;27468;47.460;19.034;2022-07-29T03:47:25;100362.13;;;22.12;51.32
41800;BME280;27468;47.460;19.034;2022-07-29T03:49:54;100352.44;;;22.10;51.30
41800;BME280;27468;47.460;19.034;2022-07-29T03:52:21;100357.19;;;22.19;51.25
41800;BME280;27468;47.460;19.034;2022-07-29T03:54:46;100356.97;;;22.22;51.13
41800;BME280;27468;47.460;19.034;2022-07-29T03:57:13;100359.00;;;22.18;51.34
41800;BME280;27468;47.460;19.034;2022-07-29T03:59:41;100324.47;;;21.99;50.97
41800;BME280;27468;47.460;19.034;2022-07-29T04:02:09;100363.75;;;22.27;51.38
41800;BME280;27468;47.460;19.034;2022-07-29T04:04:36;100369.25;;;22.38;51.24
41800;BME280;27468;47.460;19.034;2022-07-29T04:07:02;100356.59;;;22.40;51.04
41800;BME280;27468;47.460;19.034;2022-07-29T04:09:28;100365.16;;;22.58;50.67
41800;BME280;27468;47.460;19.034;2022-07-29T04:11:53;100360.44;;;22.74;50.33
41800;BME280;27468;47.460;19.034;2022-07-29T04:14:19;100366.81;;;22.86;50.16
41800;BME280;27468;47.460;19.034;2022-07-29T04:16:45;100348.22;;;22.83;49.91
41800;BME280;27468;47.460;19.034;2022-07-29T04:19:11;100378.41;;;22.99;49.52
41800;BME280;27468;47.460;19.034;2022-07-29T04:21:40;100348.31;;;22.94;49.69
41800;BME280;27468;47.460;19.034;2022-07-29T04:24:07;100360.78;;;23.08;49.28
41800;BME280;27468;47.460;19.034;2022-07-29T04:26:34;100362.31;;;23.23;49.27
41800;BME280;27468;47.460;19.034;2022-07-29T04:29:00;100361.66;;;23.32;49.02
41800;BME280;27468;47.460;19.034;2022-07-29T04:31:25;100343.53;;;23.47;48.79
41800;BME280;27468;47.460;19.034;2022-07-29T04:33:51;100333.63;;;23.60;48.44
41800;BME280;27468;47.460;19.034;2022-07-29T04:36:16;100343.66;;;23.93;47.94
41800;BME280;27468;47.460;19.034;2022-07-29T04:38:41;100345.03;;;24.34;46.79
41800;BME280;27468;47.460;19.034;2022-07-29T04:41:07;100360.41;;;24.67;46.09
41800;BME280;27468;47.460;19.034;2022-07-29T04:43:34;100342.91;;;24.73;46.03
41800;BME280;27468;47.460;19.034;2022-07-29T04:45:59;100358.06;;;24.85;45.95
41800;BME280;27468;47.460;19.034;2022-07-29T04:48:25;100355.66;;;24.82;46.06
41800;BME280;27468;47.460;19.034;2022-07-29T04:50:51;100304.66;;;24.67;45.68
41800;BME280;27468;47.460;19.034;2022-07-29T04:53:17;100347.78;;;25.34;45.18
41800;BME280;27468;47.460;19.034;2022-07-29T04:55:43;100357.03;;;25.75;44.36
41800;BME280;27468;47.460;19.034;2022-07-29T04:58:10;100353.56;;;26.05;43.35
41800;BME280;27468;47.460;19.034;2022-07-29T05:00:35;100351.59;;;26.39;41.49
41800;BME280;27468;47.460;19.034;2022-07-29T05:03:01;100349.16;;;26.87;40.63
41800;BME280;27468;47.460;19.034;2022-07-29T05:05:26;100350.19;;;27.36;40.31
41800;BME280;27468;47.460;19.034;2022-07-29T05:07:52;100350.34;;;27.44;39.33
41800;BME280;27468;47.460;19.034;2022-07-29T05:10:17;100355.34;;;27.49;39.76
41800;BME280;27468;47.460;19.034;2022-07-29T05:12:43;100352.34;;;27.42;39.79
41800;BME280;27468;47.460;19.034;2022-07-29T05:15:09;100311.84;;;27.31;39.63
41800;BME280;27468;47.460;19.034;2022-07-29T05:17:34;100359.28;;;27.66;39.58
41800;BME280;27468;47.460;19.034;2022-07-29T05:20:00;100331.44;;;27.04;40.46
41800;BME280;27468;47.460;19.034;2022-07-29T05:22:25;100363.41;;;26.89;41.32
41800;BME280;27468;47.460;19.034;2022-07-29T05:24:51;100368.25;;;26.65;41.85
41800;BME280;27468;47.460;19.034;2022-07-29T05:27:16;100361.28;;;26.42;42.31
41800;BME280;27468;47.460;19.034;2022-07-29T05:29:42;100324.66;;;25.96;42.87
41800;BME280;27468;47.460;19.034;2022-07-29T05:32:07;100356.59;;;25.91;43.26
41800;BME280;27468;47.460;19.034;2022-07-29T05:34:33;100359.59;;;25.77;43.35
41800;BME280;27468;47.460;19.034;2022-07-29T05:36:58;100356.28;;;25.62;43.93
41800;BME280;27468;47.460;19.034;2022-07-29T05:39:24;100356.81;;;25.56;44.29
41800;BME280;27468;47.460;19.034;2022-07-29T05:41:50;100350.44;;;25.46;44.56
41800;BME280;27468;47.460;19.034;2022-07-29T05:44:16;100360.91;;;25.39;44.76
41800;BME280;27468;47.460;19.034;2022-07-29T05:46:42;100344.34;;;25.32;44.72
41800;BME280;27468;47.460;19.034;2022-07-29T05:49:07;100366.19;;;25.41;45.02
41800;BME280;27468;47.460;19.034;2022-07-29T05:51:33;100372.16;;;25.44;45.11
41800;BME280;27468;47.460;19.034;2022-07-29T05:53:59;100343.38;;;25.33;44.48
41800;BME280;27468;47.460;19.034;2022-07-29T05:56:24;100369.44;;;25.55;44.56
41800;BME280;27468;47.460;19.034;2022-07-29T05:58:50;100373.13;;;25.65;44.02
41800;BME280;27468;47.460;19.034;2022-07-29T06:01:16;100371.91;;;25.70;43.62
41800;BME280;27468;47.460;19.034;2022-07-29T06:03:41;100355.69;;;25.58;43.38
41800;BME280;27468;47.460;19.034;2022-07-29T06:06:10;100379.50;;;25.76;43.59
41800;BME280;27468;47.460;19.034;2022-07-29T06:08:36;100363.19;;;25.66;42.57
41800;BME280;27468;47.460;19.034;2022-07-29T06:11:03;100372.28;;;25.65;42.66
41800;BME280;27468;47.460;19.034;2022-07-29T06:13:29;100355.34;;;25.52;42.31
41800;BME280;27468;47.460;19.034;2022-07-29T06:15:54;100376.19;;;25.50;42.68
41800;BME280;27468;47.460;19.034;2022-07-29T06:18:19;100369.47;;;25.44;43.19
41800;BME280;27468;47.460;19.034;2022-07-29T06:20:51;100365.88;;;25.55;42.59
41800;BME280;27468;47.460;19.034;2022-07-29T06:23:17;100384.78;;;25.66;42.42
41800;BME280;27468;47.460;19.034;2022-07-29T06:25:43;100377.69;;;25.65;42.27
41800;BME280;27468;47.460;19.034;2022-07-29T06:28:09;100386.72;;;25.75;42.58
41800;BME280;27468;47.460;19.034;2022-07-29T06:30:34;100366.97;;;25.75;42.70
41800;BME280;27468;47.460;19.034;2022-07-29T06:33:00;100363.06;;;25.67;41.67
41800;BME280;27468;47.460;19.034;2022-07-29T06:35:27;100395.78;;;25.85;41.79
41800;BME280;27468;47.460;19.034;2022-07-29T06:37:52;100370.41;;;25.77;42.14
41800;BME280;27468;47.460;19.034;2022-07-29T06:40:17;100375.94;;;25.75;41.97
41800;BME280;27468;47.460;19.034;2022-07-29T06:43:02;100374.94;;;25.76;41.99
41800;BME280;27468;47.460;19.034;2022-07-29T06:45:27;100381.53;;;25.94;41.87
41800;BME280;27468;47.460;19.034;2022-07-29T06:47:53;100368.75;;;25.96;42.06
41800;BME280;27468;47.460;19.034;2022-07-29T06:50:18;100393.19;;;26.16;41.84
41800;BME280;27468;47.460;19.034;2022-07-29T06:52:43;100386.28;;;26.23;41.69
41800;BME280;27468;47.460;19.034;2022-07-29T06:55:09;100361.97;;;26.23;41.39
41800;BME280;27468;47.460;19.034;2022-07-29T06:57:35;100325.03;;;26.12;40.67
41800;BME280;27468;47.460;19.034;2022-07-29T07:00:00;100386.22;;;26.45;40.62
41800;BME280;27468;47.460;19.034;2022-07-29T07:02:26;100372.75;;;26.34;40.80
41800;BME280;27468;47.460;19.034;2022-07-29T07:04:51;100367.72;;;26.29;40.98
41800;BME280;27468;47.460;19.034;2022-07-29T07:07:18;100387.19;;;26.44;41.31
41800;BME280;27468;47.460;19.034;2022-07-29T07:09:44;100351.72;;;26.38;40.94
41800;BME280;27468;47.460;19.034;2022-07-29T07:12:09;100370.63;;;26.58;40.55
41800;BME280;27468;47.460;19.034;2022-07-29T07:14:34;100387.22;;;26.75;40.21
41800;BME280;27468;47.460;19.034;2022-07-29T07:17:00;100375.53;;;26.95;39.98
41800;BME280;27468;47.460;19.034;2022-07-29T07:19:26;100372.34;;;27.11;39.68
41800;BME280;27468;47.460;19.034;2022-07-29T07:21:55;100385.34;;;27.26;39.43
41800;BME280;27468;47.460;19.034;2022-07-29T07:24:20;100377.22;;;27.26;39.30
41800;BME280;27468;47.460;19.034;2022-07-29T07:26:46;100371.50;;;27.20;39.42
41800;BME280;27468;47.460;19.034;2022-07-29T07:29:11;100375.09;;;27.30;40.05
41800;BME280;27468;47.460;19.034;2022-07-29T07:31:37;100363.41;;;27.29;39.26
41800;BME280;27468;47.460;19.034;2022-07-29T07:34:03;100361.44;;;27.32;39.29
41800;BME280;27468;47.460;19.034;2022-07-29T07:36:28;100378.28;;;27.45;39.32
41800;BME280;27468;47.460;19.034;2022-07-29T07:38:54;100367.88;;;27.40;39.44
41800;BME280;27468;47.460;19.034;2022-07-29T07:41:20;100360.59;;;27.41;39.59
41800;BME280;27468;47.460;19.034;2022-07-29T07:43:46;100377.66;;;27.62;39.67
41800;BME280;27468;47.460;19.034;2022-07-29T07:46:11;100381.22;;;27.63;39.53
41800;BME280;27468;47.460;19.034;2022-07-29T07:48:37;100367.97;;;27.59;39.52
41800;BME280;27468;47.460;19.034;2022-07-29T07:51:02;100372.53;;;27.69;39.03
41800;BME280;27468;47.460;19.034;2022-07-29T07:53:28;100363.84;;;27.65;38.94
41800;BME280;27468;47.460;19.034;2022-07-29T07:55:55;100363.69;;;27.67;38.87
41800;BME280;27468;47.460;19.034;2022-07-29T07:58:20;100353.44;;;27.70;39.01
41800;BME280;27468;47.460;19.034;2022-07-29T08:00:46;100327.72;;;27.55;39.17
41800;BME280;27468;47.460;19.034;2022-07-29T08:03:12;100359.25;;;27.75;38.94
41800;BME280;27468;47.460;19.034;2022-07-29T08:05:41;100366.97;;;27.80;38.87
41800;BME280;27468;47.460;19.034;2022-07-29T08:08:06;100378.81;;;27.79;38.79
41800;BME280;27468;47.460;19.034;2022-07-29T08:10:32;100368.38;;;27.74;38.80
41800;BME280;27468;47.460;19.034;2022-07-29T08:13:16;100364.28;;;27.70;39.19
41800;BME280;27468;47.460;19.034;2022-07-29T08:15:42;100360.13;;;27.76;38.76
41800;BME280;27468;47.460;19.034;2022-07-29T08:18:09;100356.00;;;27.81;38.97
41800;BME280;27468;47.460;19.034;2022-07-29T08:20:36;100363.84;;;27.94;39.22
41800;BME280;27468;47.460;19.034;2022-07-29T08:23:03;100366.84;;;28.01;39.15
41800;BME280;27468;47.460;19.034;2022-07-29T08:25:29;100330.75;;;27.90;38.50
41800;BME280;27468;47.460;19.034;2022-07-29T08:27:55;100321.63;;;27.91;38.78
41800;BME280;27468;47.460;19.034;2022-07-29T08:30:20;100262.44;;;27.58;38.10
41800;BME280;27468;47.460;19.034;2022-07-29T08:32:48;100346.44;;;28.06;37.89
41800;BME280;27468;47.460;19.034;2022-07-29T08:35:13;100361.31;;;28.21;38.13
41800;BME280;27468;47.460;19.034;2022-07-29T08:37:39;100353.16;;;28.12;37.96
41800;BME280;27468;47.460;19.034;2022-07-29T08:40:05;100354.03;;;28.22;38.21
41800;BME280;27468;47.460;19.034;2022-07-29T08:42:31;100335.59;;;28.16;38.20
41800;BME280;27468;47.460;19.034;2022-07-29T08:44:57;100348.63;;;28.22;38.09
41800;BME280;27468;47.460;19.034;2022-07-29T08:47:23;100354.56;;;28.35;37.80
41800;BME280;27468;47.460;19.034;2022-07-29T08:49:51;100330.16;;;28.35;38.01
41800;BME280;27468;47.460;19.034;2022-07-29T08:52:17;100342.25;;;28.50;37.48
41800;BME280;27468;47.460;19.034;2022-07-29T08:54:44;100336.56;;;28.53;38.21
41800;BME280;27468;47.460;19.034;2022-07-29T08:57:12;100343.81;;;28.63;37.46
41800;BME280;27468;47.460;19.034;2022-07-29T08:59:40;100304.28;;;28.50;37.39
41800;BME280;27468;47.460;19.034;2022-07-29T09:02:12;100317.38;;;28.65;37.15
41800;BME280;27468;47.460;19.034;2022-07-29T09:04:43;100333.63;;;28.84;37.04
41800;BME280;27468;47.460;19.034;2022-07-29T09:07:08;100308.50;;;28.72;36.62
41800;BME280;27468;47.460;19.034;2022-07-29T09:09:34;100334.00;;;28.89;36.85
41800;BME280;27468;47.460;19.034;2022-07-29T09:12:00;100333.72;;;28.92;36.06
41800;BME280;27468;47.460;19.034;2022-07-29T09:14:26;100327.25;;;29.03;34.80
41800;BME280;27468;47.460;19.034;2022-07-29T09:16:55;100331.22;;;29.08;35.09
41800;BME280;27468;47.460;19.034;2022-07-29T09:19:29;100329.38;;;29.09;35.43
41800;BME280;27468;47.460;19.034;2022-07-29T09:21:57;100336.31;;;29.21;35.40
41800;BME280;27468;47.460;19.034;2022-07-29T09:24:25;100320.31;;;29.18;35.37
41800;BME280;27468;47.460;19.034;2022-07-29T09:26:51;100316.69;;;29.27;34.59
41800;BME280;27468;47.460;19.034;2022-07-29T09:29:18;100337.25;;;29.57;34.08
41800;BME280;27468;47.460;19.034;2022-07-29T09:31:49;100288.59;;;29.18;34.54
41800;BME280;27468;47.460;19.034;2022-07-29T09:34:21;100325.59;;;29.47;34.69
41800;BME280;27468;47.460;19.034;2022-07-29T09:36:48;100317.13;;;29.50;34.32
41800;BME280;27468;47.460;19.034;2022-07-29T09:39:15;100305.81;;;29.54;33.43
41800;BME280;27468;47.460;19.034;2022-07-29T09:41:54;100306.59;;;29.65;32.94
41800;BME280;27468;47.460;19.034;2022-07-29T09:44:21;100308.94;;;29.77;33.46
41800;BME280;27468;47.460;19.034;2022-07-29T09:46:54;100285.72;;;29.65;32.90
41800;BME280;27468;47.460;19.034;2022-07-29T09:49:19;100286.09;;;29.70;32.79
41800;BME280;27468;47.460;19.034;2022-07-29T09:51:45;100287.88;;;29.79;33.21
41800;BME280;27468;47.460;19.034;2022-07-29T09:54:24;100281.22;;;29.74;32.94
41800;BME280;27468;47.460;19.034;2022-07-29T09:56:52;100310.78;;;29.95;32.84
41800;BME280;27468;47.460;19.034;2022-07-29T09:59:18;100293.63;;;29.94;32.92
41800;BME280;27468;47.460;19.034;2022-07-29T10:01:48;100289.03;;;29.95;32.79
41800;BME280;27468;47.460;19.034;2022-07-29T10:04:14;100288.19;;;29.94;32.57
41800;BME280;27468;47.460;19.034;2022-07-29T10:07:01;100294.78;;;30.09;31.28
41800;BME280;27468;47.460;19.034;2022-07-29T10:09:29;100299.03;;;30.12;30.84
41800;BME280;27468;47.460;19.034;2022-07-29T10:12:09;100290.25;;;30.18;30.89
41800;BME280;27468;47.460;19.034;2022-07-29T10:14:36;100293.34;;;30.23;31.29
41800;BME280;27468;47.460;19.034;2022-07-29T10:17:04;100285.50;;;30.20;31.41
41800;BME280;27468;47.460;19.034;2022-07-29T10:19:31;100290.78;;;30.21;32.04
41800;BME280;27468;47.460;19.034;2022-07-29T10:21:58;100280.72;;;30.14;30.64
41800;BME280;27468;47.460;19.034;2022-07-29T10:24:26;100265.09;;;30.16;30.18
41800;BME280;27468;47.460;19.034;2022-07-29T10:26:54;100272.66;;;30.30;30.78
41800;BME280;27468;47.460;19.034;2022-07-29T10:29:20;100266.06;;;30.33;30.34
41800;BME280;27468;47.460;19.034;2022-07-29T10:32:12;100273.84;;;30.53;32.53
41800;BME280;27468;47.460;19.034;2022-07-29T10:37:45;100267.47;;;30.71;31.12
41800;BME280;27468;47.460;19.034;2022-07-29T10:43:23;100280.69;;;30.92;30.94
41800;BME280;27468;47.460;19.034;2022-07-29T10:45:56;100266.25;;;30.99;29.51
41800;BME280;27468;47.460;19.034;2022-07-29T10:48:22;100270.72;;;31.08;30.04
41800;BME280;27468;47.460;19.034;2022-07-29T10:50:59;100264.47;;;31.16;29.20
41800;BME280;27468;47.460;19.034;2022-07-29T10:53:46;100232.56;;;31.00;29.66
41800;BME280;27468;47.460;19.034;2022-07-29T10:56:38;100255.44;;;31.15;30.42
41800;BME280;27468;47.460;19.034;2022-07-29T11:01:54;100258.19;;;31.32;29.44
41800;BME280;27468;47.460;19.034;2022-07-29T11:07:11;100233.03;;;31.46;28.83
41800;BME280;27468;47.460;19.034;2022-07-29T11:09:37;100240.88;;;31.65;28.10
41800;BME280;27468;47.460;19.034;2022-07-29T11:12:07;100248.22;;;31.89;27.17
41800;BME280;27468;47.460;19.034;2022-07-29T11:14:56;100240.53;;;32.01;26.92
41800;BME280;27468;47.460;19.034;2022-07-29T11:17:22;100220.09;;;32.05;27.26
41800;BME280;27468;47.460;19.034;2022-07-29T11:19:48;100215.47;;;32.05;27.31
41800;BME280;27468;47.460;19.034;2022-07-29T11:22:32;100226.56;;;32.28;26.72
41800;BME280;27468;47.460;19.034;2022-07-29T11:25:14;100224.69;;;32.12;27.76
41800;BME280;27468;47.460;19.034;2022-07-29T11:27:40;100215.47;;;32.13;26.97
41800;BME280;27468;47.460;19.034;2022-07-29T11:30:06;100210.03;;;32.13;25.92
41800;BME280;27468;47.460;19.034;2022-07-29T11:32:42;100202.50;;;32.15;25.66
41800;BME280;27468;47.460;19.034;2022-07-29T11:37:42;100205.44;;;32.22;28.12
41800;BME280;27468;47.460;19.034;2022-07-29T11:40:10;100185.00;;;31.94;28.67
41800;BME280;27468;47.460;19.034;2022-07-29T11:42:38;100196.91;;;32.01;27.38
41800;BME280;27468;47.460;19.034;2022-07-29T11:45:09;100184.81;;;32.03;27.96
41800;BME280;27468;47.460;19.034;2022-07-29T11:47:40;100199.63;;;32.17;27.21
41800;BME280;27468;47.460;19.034;2022-07-29T11:50:08;100190.06;;;32.13;26.50
41800;BME280;27468;47.460;19.034;2022-07-29T11:52:38;100201.59;;;32.39;26.80
41800;BME280;27468;47.460;19.034;2022-07-29T11:55:10;100200.72;;;32.47;26.81
41800;BME280;27468;47.460;19.034;2022-07-29T11:57:37;100189.78;;;32.55;26.58
41800;BME280;27468;47.460;19.034;2022-07-29T12:00:10;100196.88;;;32.72;25.94
41800;BME280;27468;47.460;19.034;2022-07-29T12:02:43;100198.09;;;32.78;26.27
41800;BME280;27468;47.460;19.034;2022-07-29T12:05:09;100194.69;;;32.76;26.65
41800;BME280;27468;47.460;19.034;2022-07-29T12:07:39;100181.38;;;32.65;26.70
41800;BME280;27468;47.460;19.034;2022-07-29T12:10:05;100187.34;;;32.68;26.46
41800;BME280;27468;47.460;19.034;2022-07-29T12:12:31;100184.66;;;32.60;26.57
41800;BME280;27468;47.460;19.034;2022-07-29T12:14:57;100187.75;;;32.49;26.75
41800;BME280;27468;47.460;19.034;2022-07-29T12:17:30;100196.97;;;32.48;26.82
41800;BME280;27468;47.460;19.034;2022-07-29T12:19:58;100178.06;;;32.38;27.27
41800;BME280;27468;47.460;19.034;2022-07-29T12:22:29;100164.06;;;32.41;26.42
41800;BME280;27468;47.460;19.034;2022-07-29T12:24:55;100173.72;;;32.60;26.29
41800;BME280;27468;47.460;19.034;2022-07-29T12:27:25;100178.63;;;32.73;26.09
41800;BME280;27468;47.460;19.034;2022-07-29T12:29:59;100160.53;;;32.72;25.09
41800;BME280;27468;47.460;19.034;2022-07-29T12:32:32;100160.53;;;32.72;25.86
41800;BME280;27468;47.460;19.034;2022-07-29T12:34:58;100157.81;;;32.80;25.40
41800;BME280;27468;47.460;19.034;2022-07-29T12:37:24;100148.09;;;32.77;25.12
41800;BME280;27468;47.460;19.034;2022-07-29T12:39:49;100132.56;;;32.78;25.00
41800;BME280;27468;47.460;19.034;2022-07-29T12:42:15;100149.75;;;32.87;24.47
41800;BME280;27468;47.460;19.034;2022-07-29T12:44:49;100143.13;;;32.81;25.43
41800;BME280;27468;47.460;19.034;2022-07-29T12:47:15;100137.00;;;32.79;25.77
41800;BME280;27468;47.460;19.034;2022-07-29T12:49:44;100135.59;;;32.83;26.16
41800;BME280;27468;47.460;19.034;2022-07-29T12:54:50;100143.63;;;32.85;25.74
41800;BME280;27468;47.460;19.034;2022-07-29T12:57:16;100140.41;;;32.73;26.63
41800;BME280;27468;47.460;19.034;2022-07-29T12:59:41;100135.66;;;32.67;26.61
41800;BME280;27468;47.460;19.034;2022-07-29T13:02:19;100136.00;;;32.64;26.73
41800;BME280;27468;47.460;19.034;2022-07-29T13:04:55;100138.25;;;32.60;26.79
41800;BME280;27468;47.460;19.034;2022-07-29T13:07:29;100124.47;;;32.54;26.04
41800;BME280;27468;47.460;19.034;2022-07-29T13:13:09;100132.50;;;32.47;26.20
41800;BME280;27468;47.460;19.034;2022-07-29T13:15:37;100126.72;;;32.42;26.16
41800;BME280;27468;47.460;19.034;2022-07-29T13:18:03;100124.84;;;32.42;25.53
41800;BME280;27468;47.460;19.034;2022-07-29T13:20:29;100112.91;;;32.43;25.70
41800;BME280;27468;47.460;19.034;2022-07-29T13:22:57;100102.34;;;32.40;25.05
41800;BME280;27468;47.460;19.034;2022-07-29T13:25:25;100111.00;;;32.52;25.47
41800;BME280;27468;47.460;19.034;2022-07-29T13:27:51;100095.66;;;32.51;25.68